Time;durP1;ratioP1;P1;durP2;ratioP2;P2;SDS_P1;SDS_P2;PMS_P1;PMS_P2;Temp;Humidity;BMP_temperature;BMP_pressure;BME280_temperature;BME280_humidity;BME280_pressure;Samples;Min_cycle;Max_cycle;Signal;HPM_P1;HPM_P2
2021/03/30 00:01:42;;;;;;;8.48;3.70;;;;;;;;;;5023352;28;20397;-72
2021/03/30 00:04:08;;;;;;;8.60;3.67;;;;;;;;;;5004679;28;20050;-72
2021/03/30 00:06:34;;;;;;;8.18;3.60;;;;;;;;;;4993575;28;20054;-72
2021/03/30 00:09:00;;;;;;;11.70;3.97;;;;;;;;;;4994072;28;20050;-72
2021/03/30 00:11:26;;;;;;;14.05;7.25;;;;;;;;;;4960968;28;20559;-72
2021/03/30 00:13:52;;;;;;;8.75;3.95;;;;;;;;;;4994244;28;20112;-72
2021/03/30 00:16:20;;;;;;;5.10;3.72;;;;;;;;;;4993257;28;20054;-72
2021/03/30 00:18:46;;;;;;;5.63;3.55;;;;;;;;;;4994156;28;20050;-72
2021/03/30 00:21:12;;;;;;;9.52;3.70;;;;;;;;;;5011375;28;20058;-72
2021/03/30 00:23:38;;;;;;;7.25;3.50;;;;;;;;;;5013800;28;20480;-72
2021/03/30 00:26:04;;;;;;;6.28;3.75;;;;;;;;;;4995223;28;20054;-72
2021/03/30 00:28:30;;;;;;;6.55;3.25;;;;;;;;;;4996044;28;20096;-73
2021/03/30 00:30:56;;;;;;;9.70;4.28;;;;;;;;;;4998541;28;20075;-72
2021/03/30 00:33:22;;;;;;;7.65;4.03;;;;;;;;;;4976514;28;20525;-72
2021/03/30 00:35:48;;;;;;;6.88;3.63;;;;;;;;;;4993159;28;20078;-73
2021/03/30 00:38:14;;;;;;;6.63;3.15;;;;;;;;;;4993598;28;20077;-72
2021/03/30 00:40:40;;;;;;;8.30;3.63;;;;;;;;;;4998098;28;20050;-72
2021/03/30 00:43:07;;;;;;;9.70;3.50;;;;;;;;;;4994700;28;20540;-72
2021/03/30 00:45:33;;;;;;;7.97;3.05;;;;;;;;;;4993213;28;20485;-73
2021/03/30 00:47:59;;;;;;;6.13;3.90;;;;;;;;;;4993591;28;20085;-73
2021/03/30 00:50:28;;;;;;;6.47;3.72;;;;;;;;;;4993691;28;20058;-72
2021/03/30 00:52:55;;;;;;;10.00;4.97;;;;;;;;;;4991408;28;20425;-72
2021/03/30 00:55:21;;;;;;;6.45;4.40;;;;;;;;;;4992611;28;20050;-72
2021/03/30 00:57:47;;;;;;;6.88;3.92;;;;;;;;;;4974444;28;20054;-72
2021/03/30 01:00:14;;;;;;;6.53;3.90;;;;;;;;;;4974265;28;20156;-72
2021/03/30 01:02:40;;;;;;;7.78;3.90;;;;;;;;;;4994662;28;20394;-72
2021/03/30 01:05:08;;;;;;;6.35;3.78;;;;;;;;;;4975672;28;20467;-72
2021/03/30 01:07:35;;;;;;;7.68;4.13;;;;;;;;;;4975410;28;20047;-72
2021/03/30 01:10:06;;;;;;;9.15;4.63;;;;;;;;;;4966721;28;20045;-72
2021/03/30 01:12:54;;;;;;;5.60;3.60;;;;;;;;;;5011602;28;20112;-72
2021/03/30 01:15:33;;;;;;;7.75;3.47;;;;;;;;;;5011813;28;20104;-72
2021/03/30 01:18:06;;;;;;;5.63;3.95;;;;;;;;;;5011255;28;20128;-72
2021/03/30 01:21:00;;;;;;;7.70;3.97;;;;;;;;;;4987828;28;20513;-72
2021/03/30 01:23:53;;;;;;;7.25;3.75;;;;;;;;;;4992716;28;20101;-72
2021/03/30 01:26:25;;;;;;;6.75;4.05;;;;;;;;;;4991889;28;20093;-72
2021/03/30 01:29:00;;;;;;;5.93;3.97;;;;;;;;;;4992731;28;20121;-72
2021/03/30 01:31:29;;;;;;;10.02;3.95;;;;;;;;;;4992708;28;20472;-72
2021/03/30 01:33:56;;;;;;;7.75;3.97;;;;;;;;;;4959373;28;20046;-72
2021/03/30 01:36:22;;;;;;;8.77;4.22;;;;;;;;;;4959643;28;20501;-72
2021/03/30 01:38:49;;;;;;;6.10;3.78;;;;;;;;;;5002241;28;20049;-72
2021/03/30 01:41:15;;;;;;;7.80;4.07;;;;;;;;;;5022284;28;20516;-72
2021/03/30 01:43:45;;;;;;;9.07;4.25;;;;;;;;;;5004129;28;20135;-72
2021/03/30 01:46:12;;;;;;;9.38;4.28;;;;;;;;;;5005076;28;20081;-72
2021/03/30 01:48:39;;;;;;;12.38;4.57;;;;;;;;;;5008341;28;20053;-72
2021/03/30 01:51:05;;;;;;;7.50;4.47;;;;;;;;;;5017253;28;20462;-73
2021/03/30 01:53:31;;;;;;;6.35;4.20;;;;;;;;;;5022218;28;20108;-72
2021/03/30 01:55:58;;;;;;;10.05;3.83;;;;;;;;;;5029605;28;20046;-72
2021/03/30 01:58:24;;;;;;;7.47;4.10;;;;;;;;;;5030370;28;20050;-72
2021/03/30 02:00:50;;;;;;;9.30;5.60;;;;;;;;;;5014128;28;20132;-72
2021/03/30 02:03:17;;;;;;;10.57;6.13;;;;;;;;;;5023073;28;20131;-72
2021/03/30 02:05:43;;;;;;;10.52;5.50;;;;;;;;;;5004231;28;20940;-72
2021/03/30 02:08:09;;;;;;;8.63;5.43;;;;;;;;;;4985465;28;20123;-72
2021/03/30 02:10:45;;;;;;;10.07;4.80;;;;;;;;;;4959103;28;20112;-72
2021/03/30 02:13:12;;;;;;;9.02;5.13;;;;;;;;;;4976179;28;20051;-72
2021/03/30 02:15:38;;;;;;;10.07;4.60;;;;;;;;;;4991478;28;21012;-72
2021/03/30 02:18:06;;;;;;;7.85;4.07;;;;;;;;;;4988187;28;20456;-72
2021/03/30 02:20:37;;;;;;;7.63;4.10;;;;;;;;;;4994336;28;20054;-73
2021/03/30 02:23:09;;;;;;;7.05;4.10;;;;;;;;;;4994939;28;20053;-72
2021/03/30 02:25:35;;;;;;;8.63;3.83;;;;;;;;;;4994299;28;20074;-72
2021/03/30 02:28:05;;;;;;;7.57;3.63;;;;;;;;;;5010001;28;20134;-72
2021/03/30 02:30:34;;;;;;;8.38;3.47;;;;;;;;;;5023079;28;20045;-72
2021/03/30 02:33:00;;;;;;;6.60;4.47;;;;;;;;;;5030126;28;20485;-72
2021/03/30 02:35:26;;;;;;;7.80;3.88;;;;;;;;;;5029442;28;20536;-72
2021/03/30 02:37:52;;;;;;;8.95;4.15;;;;;;;;;;5030002;28;20444;-72
2021/03/30 02:40:21;;;;;;;10.27;4.40;;;;;;;;;;5029862;28;20057;-72
2021/03/30 02:42:47;;;;;;;10.10;4.32;;;;;;;;;;5030134;28;20100;-72
2021/03/30 02:45:15;;;;;;;8.13;3.72;;;;;;;;;;5029386;28;20041;-72
2021/03/30 02:47:59;;;;;;;9.18;4.20;;;;;;;;;;5030237;28;20586;-72
2021/03/30 02:50:25;;;;;;;7.32;3.75;;;;;;;;;;5030040;28;20135;-72
2021/03/30 02:52:51;;;;;;;6.20;3.38;;;;;;;;;;5030054;28;20050;-72
2021/03/30 02:55:17;;;;;;;6.72;4.20;;;;;;;;;;5009572;28;20492;-72
2021/03/30 02:57:43;;;;;;;8.15;4.35;;;;;;;;;;5011252;28;20054;-72
2021/03/30 03:00:11;;;;;;;7.22;3.50;;;;;;;;;;4993686;28;20050;-72
2021/03/30 03:02:37;;;;;;;10.20;4.43;;;;;;;;;;4978076;28;20097;-72
2021/03/30 03:05:06;;;;;;;9.02;4.38;;;;;;;;;;4993012;28;20046;-72
2021/03/30 03:07:33;;;;;;;7.20;3.85;;;;;;;;;;4960516;28;20406;-73
2021/03/30 03:10:01;;;;;;;9.73;4.00;;;;;;;;;;4978076;28;20058;-72
2021/03/30 03:12:29;;;;;;;6.45;3.85;;;;;;;;;;4978433;28;20108;-72
2021/03/30 03:14:55;;;;;;;6.50;4.28;;;;;;;;;;4978195;28;20046;-72
2021/03/30 03:17:21;;;;;;;9.00;4.32;;;;;;;;;;4961431;28;20058;-72
2021/03/30 03:19:47;;;;;;;7.50;4.00;;;;;;;;;;4993889;28;20152;-72
2021/03/30 03:22:13;;;;;;;9.68;3.60;;;;;;;;;;4993702;28;20054;-73
2021/03/30 03:24:39;;;;;;;8.65;3.83;;;;;;;;;;4993637;28;20517;-73
2021/03/30 03:27:06;;;;;;;6.00;3.97;;;;;;;;;;5006534;28;20054;-73
2021/03/30 03:29:32;;;;;;;7.70;4.00;;;;;;;;;;4994956;28;20109;-73
2021/03/30 03:31:58;;;;;;;8.60;4.05;;;;;;;;;;4994722;28;20429;-72
2021/03/30 03:34:25;;;;;;;10.13;3.78;;;;;;;;;;4961576;28;20046;-72
2021/03/30 03:36:51;;;;;;;7.78;3.70;;;;;;;;;;4987285;28;20050;-72
2021/03/30 03:39:18;;;;;;;6.30;3.80;;;;;;;;;;5014187;28;20057;-72
2021/03/30 03:41:45;;;;;;;11.27;6.40;;;;;;;;;;5014203;28;20053;-72
2021/03/30 03:44:12;;;;;;;14.38;6.55;;;;;;;;;;4996746;28;20461;-72
2021/03/30 03:46:38;;;;;;;10.80;6.05;;;;;;;;;;5013274;28;20081;-72
2021/03/30 03:49:07;;;;;;;16.95;7.35;;;;;;;;;;5013973;28;20424;-72
2021/03/30 03:51:36;;;;;;;22.20;9.90;;;;;;;;;;5009989;28;20142;-72
2021/03/30 03:54:05;;;;;;;17.75;8.63;;;;;;;;;;4980108;28;20448;-72
2021/03/30 03:56:34;;;;;;;19.30;9.18;;;;;;;;;;5011993;28;20050;-72
2021/03/30 03:59:04;;;;;;;19.95;8.45;;;;;;;;;;4977659;28;20528;-72
2021/03/30 04:01:49;;;;;;;15.90;8.07;;;;;;;;;;4979281;28;20054;-72
2021/03/30 04:04:25;;;;;;;13.25;7.10;;;;;;;;;;5012478;28;20050;-72
2021/03/30 04:06:57;;;;;;;16.90;6.95;;;;;;;;;;4979480;28;20053;-72
2021/03/30 04:09:23;;;;;;;11.05;6.75;;;;;;;;;;4980692;28;20421;-72
2021/03/30 04:11:50;;;;;;;11.20;5.68;;;;;;;;;;4996280;28;20053;-72
2021/03/30 04:14:17;;;;;;;13.98;6.18;;;;;;;;;;4996304;28;20050;-72
2021/03/30 04:16:43;;;;;;;13.48;5.57;;;;;;;;;;4979313;28;20077;-72
2021/03/30 04:19:13;;;;;;;8.95;4.55;;;;;;;;;;5012270;28;20108;-72
2021/03/30 04:21:40;;;;;;;8.85;4.30;;;;;;;;;;4996583;28;20093;-73
2021/03/30 04:24:08;;;;;;;8.68;4.72;;;;;;;;;;5013550;28;20467;-73
2021/03/30 04:26:38;;;;;;;11.02;4.97;;;;;;;;;;4995319;28;20489;-73
2021/03/30 04:29:04;;;;;;;12.88;4.85;;;;;;;;;;5013203;28;20131;-73
2021/03/30 04:31:31;;;;;;;12.10;5.22;;;;;;;;;;4996068;28;20111;-73
2021/03/30 04:33:57;;;;;;;8.90;4.32;;;;;;;;;;4995945;28;20054;-73
2021/03/30 04:36:23;;;;;;;7.40;4.13;;;;;;;;;;5012510;28;20520;-73
2021/03/30 04:38:49;;;;;;;13.15;5.03;;;;;;;;;;5013101;28;20401;-73
2021/03/30 04:41:15;;;;;;;12.27;4.80;;;;;;;;;;5013182;28;20050;-73
2021/03/30 04:43:41;;;;;;;7.35;4.20;;;;;;;;;;5013194;28;20054;-73
2021/03/30 04:46:08;;;;;;;7.95;4.15;;;;;;;;;;5012126;28;20492;-73
2021/03/30 04:48:35;;;;;;;13.18;4.90;;;;;;;;;;5013061;28;20085;-73
2021/03/30 04:51:01;;;;;;;7.13;4.05;;;;;;;;;;5012820;28;20054;-73
2021/03/30 04:53:27;;;;;;;7.55;4.68;;;;;;;;;;4995530;28;20489;-73
2021/03/30 04:55:54;;;;;;;8.15;4.50;;;;;;;;;;5012112;28;20563;-73
2021/03/30 04:58:20;;;;;;;9.00;4.32;;;;;;;;;;5012625;28;20053;-73
2021/03/30 05:00:47;;;;;;;8.45;4.53;;;;;;;;;;5012696;28;20054;-73
2021/03/30 05:03:13;;;;;;;7.45;4.05;;;;;;;;;;5012648;28;20054;-73
2021/03/30 05:05:39;;;;;;;7.75;4.60;;;;;;;;;;5031048;28;20054;-73
2021/03/30 05:08:05;;;;;;;8.52;4.70;;;;;;;;;;5032242;28;20104;-73
2021/03/30 05:10:31;;;;;;;7.45;4.45;;;;;;;;;;5032303;28;20084;-73
2021/03/30 05:12:58;;;;;;;5.88;4.78;;;;;;;;;;4997663;28;20141;-73
2021/03/30 05:15:24;;;;;;;9.68;4.78;;;;;;;;;;4992440;28;21116;-73
2021/03/30 05:17:50;;;;;;;9.60;5.47;;;;;;;;;;4975442;28;20482;-73
2021/03/30 05:20:16;;;;;;;5.18;3.72;;;;;;;;;;4962118;28;20504;-73
2021/03/30 05:22:43;;;;;;;7.43;4.55;;;;;;;;;;5012409;28;20054;-73
2021/03/30 05:25:09;;;;;;;8.38;4.82;;;;;;;;;;5011840;28;20509;-73
2021/03/30 05:27:36;;;;;;;9.60;5.07;;;;;;;;;;4994698;28;20050;-73
2021/03/30 05:30:12;;;;;;;10.77;5.03;;;;;;;;;;5010665;28;20479;-73
2021/03/30 05:32:39;;;;;;;9.20;5.28;;;;;;;;;;4992628;28;20054;-73
2021/03/30 05:35:07;;;;;;;10.90;4.47;;;;;;;;;;4992371;28;20054;-72
2021/03/30 05:37:39;;;;;;;7.68;4.63;;;;;;;;;;4992341;28;20058;-73
2021/03/30 05:40:10;;;;;;;12.07;4.78;;;;;;;;;;4975370;28;20086;-73
2021/03/30 05:42:40;;;;;;;6.95;4.93;;;;;;;;;;4992545;28;20116;-73
2021/03/30 05:45:08;;;;;;;10.30;5.20;;;;;;;;;;4975231;28;20058;-73
2021/03/30 05:47:34;;;;;;;7.28;4.85;;;;;;;;;;4992256;28;20054;-73
2021/03/30 05:50:04;;;;;;;10.38;4.72;;;;;;;;;;4975487;28;20424;-73
2021/03/30 05:52:43;;;;;;;12.77;4.70;;;;;;;;;;4992831;28;20050;-73
2021/03/30 05:55:30;;;;;;;15.40;6.70;;;;;;;;;;4991903;28;20058;-73
2021/03/30 05:57:58;;;;;;;12.05;5.43;;;;;;;;;;4991971;28;20046;-73
2021/03/30 06:00:27;;;;;;;14.00;5.50;;;;;;;;;;4986748;28;20108;-74
2021/03/30 06:02:54;;;;;;;16.35;5.82;;;;;;;;;;5005880;28;20496;-73
2021/03/30 06:05:22;;;;;;;9.93;6.63;;;;;;;;;;5028027;28;20041;-74
2021/03/30 06:07:53;;;;;;;10.93;5.88;;;;;;;;;;5029703;28;20530;-73
2021/03/30 06:10:22;;;;;;;10.63;6.55;;;;;;;;;;5028006;28;20435;-73
2021/03/30 06:12:56;;;;;;;12.13;6.13;;;;;;;;;;5029573;28;20108;-73
2021/03/30 06:15:30;;;;;;;9.77;5.93;;;;;;;;;;5026885;28;20053;-73
2021/03/30 06:17:57;;;;;;;13.10;5.80;;;;;;;;;;5026495;28;20508;-72
2021/03/30 06:20:24;;;;;;;10.93;4.88;;;;;;;;;;5021812;28;20049;-73
2021/03/30 06:22:55;;;;;;;14.85;5.43;;;;;;;;;;5027387;28;20045;-72
2021/03/30 06:25:34;;;;;;;9.60;5.07;;;;;;;;;;5020393;28;20132;-72
2021/03/30 06:28:12;;;;;;;9.65;5.53;;;;;;;;;;5027769;28;20049;-73
2021/03/30 06:31:04;;;;;;;8.45;5.53;;;;;;;;;;5010499;28;20050;-72
2021/03/30 06:33:32;;;;;;;9.25;5.38;;;;;;;;;;5027499;28;20053;-73
2021/03/30 06:36:13;;;;;;;9.95;5.35;;;;;;;;;;5020965;28;20072;-74
2021/03/30 06:39:02;;;;;;;8.07;5.60;;;;;;;;;;5026701;28;20049;-74
2021/03/30 06:42:11;;;;;;;14.40;4.90;;;;;;;;;;5026697;28;20581;-74
2021/03/30 06:44:35;;;;;;;9.57;5.32;;;;;;;;;;5027786;28;20049;-73
2021/03/30 06:47:17;;;;;;;12.00;5.55;;;;;;;;;;5030631;28;20051;-73
2021/03/30 06:50:03;;;;;;;12.02;5.13;;;;;;;;;;5028129;28;20057;-75
2021/03/30 06:52:32;;;;;;;9.60;5.03;;;;;;;;;;5027024;28;20089;-75
2021/03/30 06:55:10;;;;;;;7.70;5.45;;;;;;;;;;5014970;28;20081;-74
2021/03/30 06:57:45;;;;;;;9.30;4.97;;;;;;;;;;4996126;28;20055;-74
2021/03/30 07:00:30;;;;;;;10.20;5.68;;;;;;;;;;5024066;28;20049;-74
2021/03/30 07:02:59;;;;;;;9.98;5.68;;;;;;;;;;5030574;28;20077;-73
2021/03/30 07:05:29;;;;;;;9.52;5.38;;;;;;;;;;5013677;28;20049;-73
2021/03/30 07:08:01;;;;;;;8.30;5.60;;;;;;;;;;5025111;28;20053;-73
2021/03/30 07:10:52;;;;;;;9.80;4.90;;;;;;;;;;5024694;28;20103;-73
2021/03/30 07:13:20;;;;;;;9.02;4.57;;;;;;;;;;5029412;28;20499;-73
2021/03/30 07:15:49;;;;;;;11.88;5.65;;;;;;;;;;5030543;28;20053;-72
2021/03/30 07:18:25;;;;;;;11.00;5.60;;;;;;;;;;5012774;28;20650;-72
2021/03/30 07:21:03;;;;;;;12.68;6.20;;;;;;;;;;5030045;28;20528;-72
2021/03/30 07:23:32;;;;;;;8.95;5.50;;;;;;;;;;5024706;28;20127;-73
2021/03/30 07:26:35;;;;;;;9.55;5.25;;;;;;;;;;5018640;28;20072;-73
2021/03/30 07:29:02;;;;;;;;;;;;;;;;;;5021641;28;20053;-73
2021/03/30 07:31:51;;;;;;;7.13;5.10;;;;;;;;;;5030749;28;19921;-72
2021/03/30 07:34:51;;;;;;;12.23;5.85;;;;;;;;;;5019968;28;20100;-74
2021/03/30 07:37:36;;;;;;;7.90;4.30;;;;;;;;;;5017519;28;20423;-74
2021/03/30 07:40:03;;;;;;;10.48;5.18;;;;;;;;;;5025535;28;20049;-74
2021/03/30 07:42:30;;;;;;;6.85;4.43;;;;;;;;;;5013440;28;20064;-74
2021/03/30 07:44:57;;;;;;;8.00;4.50;;;;;;;;;;5012787;28;20061;-74
2021/03/30 07:47:27;;;;;;;7.60;4.75;;;;;;;;;;5012373;28;20053;-74
2021/03/30 07:49:55;;;;;;;7.97;4.68;;;;;;;;;;5028862;28;20053;-74
2021/03/30 07:52:25;;;;;;;6.25;4.30;;;;;;;;;;5030291;28;20111;-77
2021/03/30 07:55:12;;;;;;;11.10;4.35;;;;;;;;;;5030192;28;20045;-74
2021/03/30 07:57:58;;;;;;;8.57;4.63;;;;;;;;;;5028749;28;20053;-74
2021/03/30 08:00:30;;;;;;;7.15;4.45;;;;;;;;;;5028091;28;20053;-73
2021/03/30 08:03:01;;;;;;;7.20;3.87;;;;;;;;;;5030557;28;20045;-74
2021/03/30 08:05:27;;;;;;;7.72;4.38;;;;;;;;;;5028971;28;20054;-73
2021/03/30 08:07:54;;;;;;;16.23;4.68;;;;;;;;;;5023105;28;20084;-76
2021/03/30 08:10:25;;;;;;;7.13;4.03;;;;;;;;;;5031154;28;20075;-73
2021/03/30 08:13:34;;;;;;;6.72;3.78;;;;;;;;;;5029598;28;20476;-73
2021/03/30 08:16:05;;;;;;;7.25;4.25;;;;;;;;;;4952212;28;20118;-74
2021/03/30 08:18:36;;;;;;;11.27;4.90;;;;;;;;;;5006091;28;20046;-75
2021/03/30 08:21:14;;;;;;;9.88;4.53;;;;;;;;;;5017515;28;20045;-72
2021/03/30 08:23:53;;;;;;;5.32;4.25;;;;;;;;;;5028603;28;20100;-71
2021/03/30 08:26:28;;;;;;;8.18;4.95;;;;;;;;;;5021688;28;20049;-71
2021/03/30 08:29:02;;;;;;;9.00;4.60;;;;;;;;;;5019280;28;20056;-72
2021/03/30 08:31:30;;;;;;;8.48;4.90;;;;;;;;;;5012013;28;20060;-71
2021/03/30 08:34:05;;;;;;;7.57;4.07;;;;;;;;;;5029510;28;20132;-70
2021/03/30 08:36:32;;;;;;;7.05;4.18;;;;;;;;;;5011093;28;20440;-71
2021/03/30 08:39:08;;;;;;;10.00;4.63;;;;;;;;;;5028775;28;20578;-70
2021/03/30 08:41:41;;;;;;;9.80;3.70;;;;;;;;;;5010297;28;20681;-71
2021/03/30 08:44:11;;;;;;;8.80;4.20;;;;;;;;;;5028479;28;20059;-70
2021/03/30 08:46:38;;;;;;;11.32;5.28;;;;;;;;;;5025821;28;20056;-71
2021/03/30 08:49:20;;;;;;;8.32;4.70;;;;;;;;;;5027885;28;20114;-71
2021/03/30 08:52:07;;;;;;;7.50;4.25;;;;;;;;;;5028689;28;20083;-71
2021/03/30 08:54:37;;;;;;;8.45;4.50;;;;;;;;;;5025815;28;20440;-72
2021/03/30 08:57:08;;;;;;;7.53;4.30;;;;;;;;;;5028539;28;20448;-74
2021/03/30 08:59:35;;;;;;;12.93;5.40;;;;;;;;;;5031228;28;20336;-73
2021/03/30 09:02:05;;;;;;;6.97;4.88;;;;;;;;;;5023295;28;20103;-73
2021/03/30 09:04:37;;;;;;;11.85;4.63;;;;;;;;;;5007476;28;20049;-73
2021/03/30 09:07:07;;;;;;;8.20;4.65;;;;;;;;;;5019309;28;20168;-73
2021/03/30 09:09:35;;;;;;;6.25;4.53;;;;;;;;;;5028147;28;20062;-76
2021/03/30 09:12:17;;;;;;;8.65;4.38;;;;;;;;;;5019055;28;20049;-80
2021/03/30 09:15:02;;;;;;;11.73;5.63;;;;;;;;;;5000273;28;20054;-75
2021/03/30 09:17:29;;;;;;;7.97;3.83;;;;;;;;;;5007656;28;20460;-77
2021/03/30 09:20:16;;;;;;;9.05;4.30;;;;;;;;;;5011222;28;20045;-72
2021/03/30 09:22:50;;;;;;;6.00;3.97;;;;;;;;;;5012820;28;20049;-73
2021/03/30 09:27:48;;;;;;;8.90;4.03;;;;;;;;;;5012549;28;20049;-72
2021/03/30 09:30:19;;;;;;;5.65;3.92;;;;;;;;;;5029365;28;20060;-73
2021/03/30 09:32:47;;;;;;;6.50;3.70;;;;;;;;;;5026596;28;20504;-73
2021/03/30 09:35:20;;;;;;;6.82;4.10;;;;;;;;;;5028924;28;20045;-73
2021/03/30 09:37:49;;;;;;;8.63;4.70;;;;;;;;;;5009853;28;20500;-76
2021/03/30 09:40:21;;;;;;;8.52;4.38;;;;;;;;;;5027280;28;20463;-72
2021/03/30 09:42:50;;;;;;;9.48;5.05;;;;;;;;;;5028049;28;20057;-73
2021/03/30 09:45:27;;;;;;;9.85;5.10;;;;;;;;;;5025842;28;20554;-75
2021/03/30 09:47:53;;;;;;;9.95;4.47;;;;;;;;;;5009951;28;20129;-74
2021/03/30 09:50:21;;;;;;;6.72;4.60;;;;;;;;;;5009588;28;20092;-73
2021/03/30 09:52:48;;;;;;;9.57;5.20;;;;;;;;;;5016611;28;20817;-73
2021/03/30 09:55:28;;;;;;;9.73;4.45;;;;;;;;;;4992922;28;20523;-76
2021/03/30 09:58:07;;;;;;;10.68;5.32;;;;;;;;;;5027024;28;20099;-74
2021/03/30 10:00:35;;;;;;;9.50;5.05;;;;;;;;;;5025858;28;20084;-72
2021/03/30 10:03:02;;;;;;;11.75;5.43;;;;;;;;;;5025464;28;20146;-72
2021/03/30 10:05:32;;;;;;;11.27;5.40;;;;;;;;;;5024123;28;20103;-71
2021/03/30 10:07:58;;;;;;;8.35;5.78;;;;;;;;;;5011725;28;20058;-71
2021/03/30 10:10:24;;;;;;;9.20;5.60;;;;;;;;;;5006708;28;20107;-71
2021/03/30 10:12:54;;;;;;;9.55;4.57;;;;;;;;;;5004833;28;20099;-70
2021/03/30 10:15:42;;;;;;;8.63;5.03;;;;;;;;;;5024424;28;20369;-70
2021/03/30 10:18:10;;;;;;;9.77;5.43;;;;;;;;;;5032157;28;20057;-73
2021/03/30 10:20:38;;;;;;;7.88;4.95;;;;;;;;;;5032934;28;20085;-72
2021/03/30 10:23:14;;;;;;;10.32;5.20;;;;;;;;;;5032923;28;20049;-72
2021/03/30 10:25:40;;;;;;;9.98;4.60;;;;;;;;;;5030442;28;20080;-72
2021/03/30 10:28:06;;;;;;;8.65;4.78;;;;;;;;;;5026446;28;20046;-73
2021/03/30 10:30:48;;;;;;;10.05;5.85;;;;;;;;;;5016036;28;20049;-74
2021/03/30 10:33:40;;;;;;;7.85;4.72;;;;;;;;;;5032700;28;20123;-72
2021/03/30 10:36:09;;;;;;;9.73;4.65;;;;;;;;;;5025279;28;20585;-72
2021/03/30 10:38:39;;;;;;;7.18;4.78;;;;;;;;;;5032439;28;20050;-72
2021/03/30 10:41:08;;;;;;;6.70;3.70;;;;;;;;;;5015377;28;20124;-72
2021/03/30 10:43:34;;;;;;;11.15;4.03;;;;;;;;;;5011147;28;20488;-71
2021/03/30 10:46:02;;;;;;;7.07;3.97;;;;;;;;;;5031602;28;20329;-72
2021/03/30 10:48:28;;;;;;;9.07;4.03;;;;;;;;;;5014551;28;20115;-72
2021/03/30 10:50:55;;;;;;;5.93;4.13;;;;;;;;;;5030800;28;20053;-72
2021/03/30 10:53:23;;;;;;;7.45;3.90;;;;;;;;;;5032857;28;20552;-71
2021/03/30 10:55:49;;;;;;;6.57;3.70;;;;;;;;;;5030807;28;20041;-71
2021/03/30 10:58:16;;;;;;;6.22;3.38;;;;;;;;;;5025539;28;20058;-73
2021/03/30 11:00:43;;;;;;;6.15;3.90;;;;;;;;;;5025569;28;20103;-72
2021/03/30 11:03:24;;;;;;;6.53;3.93;;;;;;;;;;5008047;28;20505;-71
2021/03/30 11:05:51;;;;;;;6.82;3.58;;;;;;;;;;5029038;28;20322;-71
2021/03/30 11:08:17;;;;;;;4.97;3.50;;;;;;;;;;5015359;28;20138;-71
2021/03/30 11:10:44;;;;;;;5.80;3.72;;;;;;;;;;5032559;28;20053;-71
2021/03/30 11:13:10;;;;;;;7.35;3.38;;;;;;;;;;5019706;28;20057;-71
2021/03/30 11:15:37;;;;;;;4.57;3.25;;;;;;;;;;5029199;28;20053;-71
2021/03/30 11:18:03;;;;;;;4.78;3.53;;;;;;;;;;5025812;28;20420;-72
2021/03/30 11:20:29;;;;;;;7.85;4.20;;;;;;;;;;5032789;28;20061;-73
2021/03/30 11:22:56;;;;;;;4.65;3.38;;;;;;;;;;5031605;28;20053;-73
2021/03/30 11:25:24;;;;;;;7.47;3.75;;;;;;;;;;5024667;28;20146;-75
2021/03/30 11:28:23;;;;;;;6.72;3.88;;;;;;;;;;5047950;28;20370;-71
2021/03/30 11:30:57;;;;;;;7.13;4.05;;;;;;;;;;5046730;28;20045;-70
2021/03/30 11:33:29;;;;;;;5.95;3.28;;;;;;;;;;5051685;28;20049;-77
2021/03/30 11:36:01;;;;;;;5.05;3.28;;;;;;;;;;5047502;28;20111;-73
2021/03/30 11:38:27;;;;;;;4.40;3.13;;;;;;;;;;5049640;28;20585;-71
2021/03/30 11:40:53;;;;;;;5.28;3.60;;;;;;;;;;5047079;28;20049;-80
2021/03/30 11:43:19;;;;;;;5.75;3.50;;;;;;;;;;5030079;28;20805;-78
2021/03/30 11:45:46;;;;;;;4.10;3.38;;;;;;;;;;5030311;28;20451;-73
2021/03/30 11:52:02;;;;;;;5.38;3.28;;;;;;;;;;5050386;28;20040;-76
2021/03/30 11:54:29;;;;;;;5.70;3.40;;;;;;;;;;5013899;28;20069;-73
2021/03/30 11:56:58;;;;;;;7.07;3.97;;;;;;;;;;5049477;28;20475;-77
2021/03/30 11:59:27;;;;;;;5.93;3.10;;;;;;;;;;5046219;28;20703;-74
2021/03/30 12:01:54;;;;;;;4.30;2.90;;;;;;;;;;5047052;28;20083;-74
2021/03/30 12:04:21;;;;;;;5.40;2.70;;;;;;;;;;5045328;28;20103;-73
2021/03/30 12:06:47;;;;;;;4.90;2.85;;;;;;;;;;5046331;28;20096;-74
2021/03/30 12:09:13;;;;;;;4.28;2.92;;;;;;;;;;4994954;28;20103;-74
2021/03/30 12:11:44;;;;;;;6.65;3.25;;;;;;;;;;5025076;28;20051;-74
2021/03/30 12:14:11;;;;;;;7.00;2.55;;;;;;;;;;5026438;28;20116;-74
2021/03/30 12:16:37;;;;;;;6.07;2.92;;;;;;;;;;5024213;28;20068;-73
2021/03/30 12:19:03;;;;;;;4.40;3.20;;;;;;;;;;5024718;28;20095;-74
2021/03/30 12:21:30;;;;;;;4.88;3.60;;;;;;;;;;5022790;28;20141;-75
2021/03/30 12:23:56;;;;;;;4.88;3.40;;;;;;;;;;5024779;28;20100;-75
2021/03/30 12:26:23;;;;;;;7.45;3.17;;;;;;;;;;5025792;28;20058;-77
2021/03/30 12:28:51;;;;;;;5.28;3.55;;;;;;;;;;5009341;28;20096;-76
2021/03/30 12:31:40;;;;;;;6.10;2.80;;;;;;;;;;5008488;28;20045;-78
2021/03/30 12:35:07;;;;;;;4.70;2.65;;;;;;;;;;5002505;28;20068;-78
2021/03/30 12:37:34;;;;;;;;;;;;;;;;;;5022051;28;20435;-75
2021/03/30 12:40:43;;;;;;;4.20;2.47;;;;;;;;;;5011846;28;20012;-79
2021/03/30 12:43:41;;;;;;;4.15;2.55;;;;;;;;;;5009873;28;20064;-79
2021/03/30 12:46:23;;;;;;;5.07;2.70;;;;;;;;;;5006081;28;20044;-77
2021/03/30 12:56:17;;;;;;;3.70;2.20;;;;;;;;;;5009999;23;20117;-77
2021/03/30 12:58:44;;;;;;;3.65;2.75;;;;;;;;;;4984041;28;20053;-76
2021/03/30 13:01:11;;;;;;;6.60;2.80;;;;;;;;;;5000125;28;20061;-73
2021/03/30 13:03:53;;;;;;;4.03;2.83;;;;;;;;;;4999225;28;20572;-75
2021/03/30 13:06:21;;;;;;;4.60;2.75;;;;;;;;;;5002083;28;20058;-77
2021/03/30 13:12:31;;;;;;;3.97;3.15;;;;;;;;;;5004708;28;20045;-75
2021/03/30 13:15:15;;;;;;;3.35;2.72;;;;;;;;;;4996800;28;20098;-74
2021/03/30 13:17:41;;;;;;;3.55;2.60;;;;;;;;;;5012629;28;20054;-73
2021/03/30 13:20:08;;;;;;;2.88;2.40;;;;;;;;;;5000806;28;20058;-74
2021/03/30 13:22:34;;;;;;;3.40;2.38;;;;;;;;;;5000579;28;20045;-74
2021/03/30 13:25:02;;;;;;;4.00;2.55;;;;;;;;;;4996341;28;20070;-73
2021/03/30 13:27:28;;;;;;;6.57;3.10;;;;;;;;;;4984492;28;20093;-74
2021/03/30 13:29:55;;;;;;;4.45;3.00;;;;;;;;;;4993289;28;20047;-73
2021/03/30 13:32:21;;;;;;;4.47;2.38;;;;;;;;;;5002949;28;20050;-73
2021/03/30 13:34:48;;;;;;;3.35;2.35;;;;;;;;;;4998480;28;20050;-72
2021/03/30 13:37:15;;;;;;;4.40;2.50;;;;;;;;;;4998964;28;20046;-73
2021/03/30 13:39:42;;;;;;;5.88;2.17;;;;;;;;;;5001405;28;20600;-73
2021/03/30 13:42:10;;;;;;;6.32;2.70;;;;;;;;;;5003798;28;20045;-73
2021/03/30 13:44:36;;;;;;;4.22;2.05;;;;;;;;;;5015775;28;20159;-73
2021/03/30 13:47:04;;;;;;;4.15;2.00;;;;;;;;;;5001830;28;20567;-73
2021/03/30 13:49:32;;;;;;;2.78;2.28;;;;;;;;;;5013909;28;20105;-74
2021/03/30 13:51:58;;;;;;;5.20;2.58;;;;;;;;;;5011138;28;20451;-73
2021/03/30 13:58:09;;;;;;;3.92;2.22;;;;;;;;;;4996443;28;20073;-72
2021/03/30 14:00:35;;;;;;;3.00;2.00;;;;;;;;;;5003501;28;20472;-72
2021/03/30 14:03:01;;;;;;;2.65;2.28;;;;;;;;;;5003231;28;20522;-72
2021/03/30 14:05:28;;;;;;;3.65;2.10;;;;;;;;;;5004992;28;20512;-72
2021/03/30 14:07:54;;;;;;;2.38;1.60;;;;;;;;;;5000139;28;20042;-72
2021/03/30 14:10:21;;;;;;;3.85;1.88;;;;;;;;;;5000986;28;20056;-72
2021/03/30 14:13:00;;;;;;;4.25;2.28;;;;;;;;;;5002162;28;20070;-73
2021/03/30 14:21:14;;;;;;;2.47;2.10;;;;;;;;;;4992514;28;20481;-72
2021/03/30 14:23:49;;;;;;;4.57;2.50;;;;;;;;;;4998700;28;20374;-72
2021/03/30 14:26:22;;;;;;;3.28;2.08;;;;;;;;;;4993779;28;20063;-72
2021/03/30 14:29:09;;;;;;;3.03;2.35;;;;;;;;;;4991503;28;20158;-71
2021/03/30 14:31:51;;;;;;;2.03;1.83;;;;;;;;;;4964157;28;20050;-75
2021/03/30 14:34:19;;;;;;;2.58;1.77;;;;;;;;;;5046881;28;20135;-75
2021/03/30 14:36:45;;;;;;;2.08;1.70;;;;;;;;;;5029895;28;20056;-71
2021/03/30 14:39:13;;;;;;;3.65;2.28;;;;;;;;;;5028684;28;20423;-78
2021/03/30 14:45:04;;;;;;;4.45;1.73;;;;;;;;;;5031527;28;20049;-73
2021/03/30 14:53:24;;;;;;;2.72;1.58;;;;;;;;;;5026385;28;20144;-74
2021/03/30 14:55:58;;;;;;;2.15;1.70;;;;;;;;;;5029338;28;20140;-74
2021/03/30 15:02:17;;;;;;;3.42;1.67;;;;;;;;;;5028630;28;20199;-74
2021/03/30 15:06:30;;;;;;;4.38;1.75;;;;;;;;;;5029509;28;20045;-73
2021/03/30 15:08:57;;;;;;;5.30;2.25;;;;;;;;;;5030247;28;20523;-73
2021/03/30 15:11:38;;;;;;;4.78;2.22;;;;;;;;;;5028115;28;20046;-74
2021/03/30 15:14:05;;;;;;;3.00;1.80;;;;;;;;;;5023314;28;20525;-75
2021/03/30 15:16:32;;;;;;;3.67;1.60;;;;;;;;;;5028362;28;20084;-77
2021/03/30 15:19:18;;;;;;;2.50;1.98;;;;;;;;;;5044663;28;20381;-74
2021/03/30 15:21:45;;;;;;;3.20;1.75;;;;;;;;;;5050117;28;20132;-75
2021/03/30 15:24:13;;;;;;;2.17;1.83;;;;;;;;;;5028760;28;20049;-72
2021/03/30 15:26:41;;;;;;;2.50;2.05;;;;;;;;;;5029375;28;20141;-73
2021/03/30 15:29:08;;;;;;;4.70;1.95;;;;;;;;;;5029229;28;21050;-72
2021/03/30 15:31:35;;;;;;;5.20;1.70;;;;;;;;;;5028294;28;20049;-72
2021/03/30 15:34:02;;;;;;;5.15;1.60;;;;;;;;;;5009927;28;20072;-72
2021/03/30 15:36:29;;;;;;;5.95;1.73;;;;;;;;;;5008639;28;20405;-72
2021/03/30 15:38:55;;;;;;;3.42;1.80;;;;;;;;;;5029696;28;20103;-72
2021/03/30 15:41:22;;;;;;;4.22;1.88;;;;;;;;;;5029300;28;20461;-72
2021/03/30 15:43:49;;;;;;;4.55;1.63;;;;;;;;;;5029684;28;20052;-72